Richardson's Hourly Summary for Thursday, July 5, 2018
Hour Temp
(f)
RH
(%)
Solar Rad.
(MJ/m2)
Rainfall
(in)
Wind
(mph)
7/5/2018 12:00 AM 79 65 0 0 6.06
7/5/2018 1:00 AM 77 69 0 0 4.59
7/5/2018 2:00 AM 76 71 0 0 2.52
7/5/2018 3:00 AM 76 74 0 0 1.14
7/5/2018 4:00 AM 75 77 0 0 0.62
7/5/2018 5:00 AM 75 78 0 0 0.04
7/5/2018 6:00 AM 74 80 0 0 0.1
7/5/2018 7:00 AM 74 82 0.03 0 0.71
7/5/2018 8:00 AM 76 75 0.4 0 0.39
7/5/2018 9:00 AM 78 64 1.15 0 1.75
7/5/2018 10:00 AM 82 59 1.91 0 2.52
7/5/2018 11:00 AM 84 54 2.43 0 2.66
7/5/2018 12:00 PM 86 50 2.8 0 3.21
7/5/2018 1:00 PM 89 46 3.05 0 3.03
7/5/2018 2:00 PM 91 43 2.9 0 3.7
7/5/2018 3:00 PM 93 38 2.82 0 3.52
7/5/2018 4:00 PM 94 35 2.68 0 3.63
7/5/2018 5:00 PM 95 35 2.06 0 3.98
7/5/2018 6:00 PM 95 32 1.72 0 3.95
7/5/2018 7:00 PM 94 34 0.68 0 4.04
7/5/2018 8:00 PM 90 43 0.29 0 5.09
7/5/2018 9:00 PM 87 53 0.05 0 4.78
7/5/2018 10:00 PM 85 57 0 0 4.13
7/5/2018 11:00 PM 84 60 0 0 3.44
Data Summary 83 57 24.97 0.00 2.90